Time;durP1;ratioP1;P1;durP2;ratioP2;P2;SDS_P1;SDS_P2;PMS_P1;PMS_P2;Temp;Humidity;BMP_temperature;BMP_pressure;BME280_temperature;BME280_humidity;BME280_pressure;Samples;Min_cycle;Max_cycle;Signal;HPM_P1;HPM_P2
2021/10/27 00:00:08;;;;;;;12.48;5.53;;;;;;;17.96;84.53;101494.38;4951156;28;20039;-73
2021/10/27 00:02:37;;;;;;;12.52;6.55;;;;;;;18.00;84.48;101493.47;4944229;28;20516;-74
2021/10/27 00:05:06;;;;;;;10.65;5.68;;;;;;;17.99;84.46;101499.69;4950117;28;20043;-74
2021/10/27 00:07:34;;;;;;;12.13;5.57;;;;;;;17.99;84.42;101493.47;4951514;28;20039;-74
2021/10/27 00:10:01;;;;;;;12.95;5.68;;;;;;;17.99;84.54;101485.44;4951018;28;20042;-73
2021/10/27 00:12:28;;;;;;;18.70;6.65;;;;;;;18.00;84.47;101479.22;4951165;28;20043;-73
2021/10/27 00:14:57;;;;;;;12.63;5.75;;;;;;;18.00;84.53;101480.09;4951875;28;20050;-74
2021/10/27 00:17:25;;;;;;;16.00;6.28;;;;;;;18.00;84.64;101480.09;4950764;28;20408;-73
2021/10/27 00:19:54;;;;;;;10.93;5.57;;;;;;;17.97;84.73;101474.78;4950406;28;20528;-73
2021/10/27 00:22:21;;;;;;;8.88;5.28;;;;;;;17.96;85.02;101465.00;4951084;28;20394;-73
2021/10/27 00:24:49;;;;;;;13.10;5.50;;;;;;;18.01;84.93;101471.19;4950737;28;20031;-73
2021/10/27 00:27:16;;;;;;;11.63;5.75;;;;;;;18.04;84.91;101473.88;4951403;28;20523;-73
2021/10/27 00:29:44;;;;;;;13.68;6.43;;;;;;;18.04;84.94;101476.53;4966003;28;20118;-72
2021/10/27 00:32:11;;;;;;;11.82;5.65;;;;;;;18.06;84.64;101472.06;4950512;28;20523;-73
2021/10/27 00:34:38;;;;;;;12.68;5.57;;;;;;;18.03;84.56;101471.19;4951139;28;20051;-74
2021/10/27 00:37:08;;;;;;;12.13;5.43;;;;;;;18.03;84.46;101464.06;4949451;28;20047;-72
2021/10/27 00:39:36;;;;;;;14.93;6.00;;;;;;;18.01;84.54;101470.31;4950851;28;20047;-72
2021/10/27 00:42:04;;;;;;;9.85;4.90;;;;;;;18.00;84.51;101464.06;4951017;28;20050;-72
2021/10/27 00:44:33;;;;;;;10.02;5.50;;;;;;;18.00;84.48;101457.84;4950804;28;20097;-72
2021/10/27 00:47:01;;;;;;;12.25;5.47;;;;;;;18.02;84.22;101445.38;4950810;28;20043;-73
2021/10/27 00:49:30;;;;;;;15.75;5.53;;;;;;;18.02;84.14;101445.38;4950064;28;20063;-73
2021/10/27 00:51:57;;;;;;;15.18;5.38;;;;;;;18.01;84.12;101448.94;4950014;28;20051;-72
2021/10/27 00:54:27;;;;;;;11.02;5.00;;;;;;;18.01;84.15;101454.28;4931676;29;20040;-73
2021/10/27 00:56:56;;;;;;;9.70;5.18;;;;;;;18.01;84.18;101457.84;4950308;28;20386;-74
2021/10/27 00:59:24;;;;;;;13.52;5.68;;;;;;;18.00;84.07;101448.03;4948557;28;20043;-69
2021/10/27 01:01:52;;;;;;;11.93;5.88;;;;;;;18.00;84.00;101456.06;4949466;28;20061;-73
2021/10/27 01:04:20;;;;;;;8.30;4.90;;;;;;;18.01;84.04;101444.47;4950551;28;20477;-73
2021/10/27 01:06:47;;;;;;;9.48;4.30;;;;;;;18.01;83.98;101452.50;4949841;28;20035;-73
2021/10/27 01:09:15;;;;;;;12.63;4.70;;;;;;;18.00;84.00;101445.38;4950515;28;20055;-72
2021/10/27 01:11:44;;;;;;;11.25;4.68;;;;;;;18.02;83.75;101451.59;4950070;28;20417;-72
2021/10/27 01:14:12;;;;;;;13.15;4.57;;;;;;;18.02;83.62;101448.94;4949263;28;20047;-71
2021/10/27 01:16:40;;;;;;;13.65;4.93;;;;;;;18.02;83.59;101440.03;4950147;28;20047;-71
2021/10/27 01:19:08;;;;;;;12.70;4.45;;;;;;;18.04;83.32;101438.25;4949965;28;20047;-73
2021/10/27 01:21:40;;;;;;;11.88;4.18;;;;;;;18.02;83.12;101440.91;4949963;28;20071;-73
2021/10/27 01:24:08;;;;;;;15.07;4.53;;;;;;;18.01;83.03;101439.13;4950552;28;20412;-73
2021/10/27 01:26:37;;;;;;;11.32;4.20;;;;;;;18.00;82.79;101436.47;4950177;28;20054;-73
2021/10/27 01:29:04;;;;;;;13.05;4.50;;;;;;;17.95;82.69;101439.16;4949973;28;20122;-73
2021/10/27 01:31:32;;;;;;;13.07;4.60;;;;;;;17.96;82.52;101432.94;4950335;28;20043;-73
2021/10/27 01:34:00;;;;;;;12.88;4.35;;;;;;;17.96;82.40;101430.25;4949464;28;20047;-73
2021/10/27 01:36:29;;;;;;;9.13;3.50;;;;;;;17.93;82.16;101430.25;4949390;28;20050;-73
2021/10/27 01:38:58;;;;;;;15.57;3.80;;;;;;;17.88;81.84;101429.38;4950431;28;20461;-73
2021/10/27 01:41:27;;;;;;;9.43;3.58;;;;;;;17.88;81.69;101426.72;4948771;28;20039;-73
2021/10/27 01:43:57;;;;;;;11.93;3.88;;;;;;;17.90;81.60;101424.94;4950457;28;20594;-73
2021/10/27 01:46:29;;;;;;;10.43;3.67;;;;;;;17.92;81.37;101428.47;4949030;28;20039;-73
2021/10/27 01:48:57;;;;;;;9.10;4.00;;;;;;;17.95;81.07;101430.25;4949580;28;20073;-74
2021/10/27 01:51:25;;;;;;;8.20;3.53;;;;;;;17.96;80.91;101421.34;4949320;28;20050;-74
2021/10/27 01:53:54;;;;;;;8.60;3.53;;;;;;;17.96;80.70;101435.59;4949516;28;20524;-73
2021/10/27 01:56:23;;;;;;;8.98;3.78;;;;;;;17.93;80.70;101440.94;4949065;28;20475;-73
2021/10/27 01:58:51;;;;;;;12.13;4.20;;;;;;;17.92;80.89;101436.50;4950100;28;20041;-74
2021/10/27 02:01:18;;;;;;;12.85;3.92;;;;;;;17.92;80.85;101434.72;4949943;28;20499;-74
2021/10/27 02:03:46;;;;;;;9.93;3.42;;;;;;;17.95;80.50;101433.81;4948344;28;20505;-73
2021/10/27 02:06:14;;;;;;;12.30;4.07;;;;;;;17.97;80.16;101437.38;4949570;28;20500;-73
2021/10/27 02:08:42;;;;;;;9.93;3.58;;;;;;;17.99;80.07;101432.91;4947408;28;20047;-72
2021/10/27 02:11:10;;;;;;;11.40;4.07;;;;;;;17.99;80.05;101443.59;4949731;28;20519;-74
2021/10/27 02:13:39;;;;;;;13.70;4.22;;;;;;;17.94;79.86;101453.41;4949153;28;20043;-74
2021/10/27 02:16:08;;;;;;;10.52;3.63;;;;;;;17.95;79.89;101448.97;4949982;28;20124;-74
2021/10/27 02:18:36;;;;;;;10.98;3.40;;;;;;;17.96;79.81;101451.63;4949634;28;20412;-74
2021/10/27 02:21:03;;;;;;;9.93;3.95;;;;;;;17.98;79.71;101443.63;4949503;28;20043;-74
2021/10/27 02:23:31;;;;;;;9.75;4.53;;;;;;;18.01;79.73;101441.81;4948564;28;20062;-74
2021/10/27 02:25:58;;;;;;;13.85;4.72;;;;;;;18.02;79.60;101438.25;4949275;28;20062;-74
2021/10/27 02:28:26;;;;;;;12.20;3.97;;;;;;;18.01;79.61;101440.91;4949402;28;20075;-74
2021/10/27 02:30:55;;;;;;;7.68;3.40;;;;;;;18.02;79.56;101435.56;4949231;28;20055;-74
2021/10/27 02:33:22;;;;;;;14.95;3.95;;;;;;;18.00;79.36;101428.44;4949171;28;20039;-73
2021/10/27 02:35:50;;;;;;;10.30;3.95;;;;;;;17.96;79.44;101432.94;4948822;28;20047;-74
2021/10/27 02:38:17;;;;;;;8.38;3.95;;;;;;;17.98;79.29;101439.16;4948669;28;20048;-74
2021/10/27 02:40:44;;;;;;;12.63;4.05;;;;;;;18.01;79.31;101441.81;4948925;28;20054;-74
2021/10/27 02:43:12;;;;;;;12.15;4.15;;;;;;;18.05;79.20;101440.88;4948964;28;20035;-73
2021/10/27 02:45:39;;;;;;;12.57;4.18;;;;;;;18.07;78.84;101438.22;4930780;28;20048;-74
2021/10/27 02:48:08;;;;;;;12.13;4.35;;;;;;;18.09;78.62;101442.66;4948934;28;20039;-74
2021/10/27 02:50:36;;;;;;;8.68;4.45;;;;;;;18.08;78.40;101445.34;4948748;28;20044;-73
2021/10/27 02:53:03;;;;;;;10.82;4.00;;;;;;;18.06;78.53;101444.44;4948586;28;20047;-74
2021/10/27 02:55:30;;;;;;;10.57;3.60;;;;;;;18.07;78.61;101443.56;4949600;28;20055;-74
2021/10/27 02:57:59;;;;;;;10.60;4.18;;;;;;;18.07;78.53;101447.13;4948290;28;20058;-74
2021/10/27 03:00:27;;;;;;;16.17;4.40;;;;;;;18.07;78.78;101452.47;4948481;28;20085;-74
2021/10/27 03:02:55;;;;;;;14.68;3.75;;;;;;;18.08;78.89;101456.91;4948356;28;20039;-74
2021/10/27 03:05:24;;;;;;;11.00;3.85;;;;;;;18.10;78.92;101460.50;4948446;28;20428;-74
2021/10/27 03:07:52;;;;;;;14.60;4.40;;;;;;;18.07;79.05;101449.78;4948512;28;20409;-73
2021/10/27 03:10:19;;;;;;;6.82;3.60;;;;;;;18.08;79.04;101451.59;4948785;28;20036;-74
2021/10/27 03:12:47;;;;;;;11.00;4.40;;;;;;;18.10;79.10;101464.94;4948211;28;20043;-73
2021/10/27 03:15:14;;;;;;;8.90;3.97;;;;;;;18.11;79.26;101475.63;4948539;28;20043;-73
2021/10/27 03:17:42;;;;;;;13.60;4.40;;;;;;;18.12;79.40;101466.69;4948948;28;20055;-72
2021/10/27 03:20:10;;;;;;;12.13;5.35;;;;;;;18.10;79.40;101463.16;4948889;28;20043;-73
2021/10/27 03:22:39;;;;;;;11.45;4.28;;;;;;;18.06;79.68;101466.72;4950481;28;20592;-74
2021/10/27 03:25:07;;;;;;;12.95;4.60;;;;;;;18.00;79.89;101474.75;4951608;28;20127;-73
2021/10/27 03:27:35;;;;;;;10.43;4.43;;;;;;;17.95;80.27;101470.34;4951141;28;20050;-73
2021/10/27 03:30:04;;;;;;;14.23;5.18;;;;;;;17.94;80.22;101477.44;4951918;28;20074;-73
2021/10/27 03:32:32;;;;;;;11.57;4.68;;;;;;;17.93;80.28;101471.22;4951915;28;20493;-74
2021/10/27 03:34:59;;;;;;;9.23;4.13;;;;;;;17.98;80.32;101475.69;4951665;28;20109;-74
2021/10/27 03:37:26;;;;;;;11.40;5.00;;;;;;;17.99;80.29;101483.66;4951673;28;20046;-73
2021/10/27 03:39:55;;;;;;;11.95;4.57;;;;;;;18.02;80.08;101482.78;4951318;28;20051;-74
2021/10/27 03:42:23;;;;;;;13.63;4.50;;;;;;;18.02;79.88;101477.44;4951490;28;20054;-73
2021/10/27 03:44:50;;;;;;;12.43;4.85;;;;;;;18.00;79.74;101484.56;4951666;28;20046;-74
2021/10/27 03:47:17;;;;;;;14.32;4.10;;;;;;;17.96;80.07;101480.13;4951520;28;20043;-73
2021/10/27 03:49:45;;;;;;;8.05;3.85;;;;;;;17.93;80.29;101487.25;4951516;28;20514;-73
2021/10/27 03:52:13;;;;;;;12.27;4.40;;;;;;;17.95;80.37;101489.91;4951054;28;20047;-73
2021/10/27 03:54:41;;;;;;;10.73;4.55;;;;;;;17.94;80.33;101480.13;4950463;28;20035;-74
2021/10/27 03:57:10;;;;;;;10.18;4.43;;;;;;;17.92;80.31;101485.47;4951168;28;20154;-74
2021/10/27 03:59:37;;;;;;;12.98;4.07;;;;;;;17.92;80.31;101481.91;4951581;28;20055;-74
2021/10/27 04:02:05;;;;;;;8.63;4.68;;;;;;;17.91;80.44;101486.38;4950842;28;20432;-74
2021/10/27 04:04:33;;;;;;;13.30;4.95;;;;;;;17.89;80.43;101489.94;4950979;28;20122;-74
2021/10/27 04:07:00;;;;;;;12.45;5.38;;;;;;;17.86;80.47;101498.84;4951297;28;20048;-74
2021/10/27 04:09:28;;;;;;;12.85;5.50;;;;;;;17.83;80.70;101495.31;4965459;28;20571;-74
2021/10/27 04:11:55;;;;;;;13.77;6.40;;;;;;;17.81;80.87;101497.06;4951427;28;20085;-74
2021/10/27 04:14:24;;;;;;;13.60;6.13;;;;;;;17.81;80.95;101505.09;4951414;28;20144;-74
2021/10/27 04:16:51;;;;;;;10.65;4.60;;;;;;;17.77;80.99;101506.00;4950703;28;20043;-74
2021/10/27 04:19:19;;;;;;;14.07;4.50;;;;;;;17.75;81.05;101516.69;4950749;28;20038;-74
2021/10/27 04:21:47;;;;;;;7.20;4.40;;;;;;;17.71;81.16;101509.59;4951144;28;20039;-74
2021/10/27 04:24:15;;;;;;;10.32;4.03;;;;;;;17.72;81.27;101514.00;4951430;28;20050;-73
2021/10/27 04:26:42;;;;;;;10.93;4.68;;;;;;;17.74;81.16;101514.00;4950988;28;20105;-72
2021/10/27 04:29:09;;;;;;;10.23;4.72;;;;;;;17.74;81.05;101508.66;4965140;28;20050;-74
2021/10/27 04:31:38;;;;;;;11.57;5.07;;;;;;;17.73;80.84;101507.78;4942615;28;20054;-72
2021/10/27 04:34:06;;;;;;;13.38;4.65;;;;;;;17.75;80.83;101515.78;4950775;28;20046;-71
2021/10/27 04:36:33;;;;;;;13.27;4.60;;;;;;;17.74;80.83;101514.00;4950818;28;20539;-72
2021/10/27 04:39:00;;;;;;;14.15;5.05;;;;;;;17.70;80.80;101514.91;4950964;28;20507;-72
2021/10/27 04:41:28;;;;;;;13.60;5.20;;;;;;;17.67;80.96;101522.91;4950835;28;20512;-73
2021/10/27 04:43:55;;;;;;;11.70;4.72;;;;;;;17.64;81.11;101522.94;4950451;28;20516;-74
2021/10/27 04:46:23;;;;;;;18.25;5.40;;;;;;;17.60;81.37;101539.81;4950799;28;20512;-73
2021/10/27 04:48:52;;;;;;;13.80;4.72;;;;;;;17.53;81.75;101542.47;4951076;28;20043;-74
2021/10/27 04:51:19;;;;;;;16.00;5.90;;;;;;;17.50;82.00;101553.19;4950542;28;20042;-78
2021/10/27 04:53:46;;;;;;;11.27;4.15;;;;;;;17.48;82.18;101554.94;4951259;28;20397;-76
2021/10/27 04:56:14;;;;;;;17.35;4.85;;;;;;;17.45;82.40;101557.63;4950331;28;20599;-74
2021/10/27 04:58:41;;;;;;;14.85;4.20;;;;;;;17.40;82.43;101567.38;4950411;28;20043;-73
2021/10/27 05:01:09;;;;;;;11.63;4.80;;;;;;;17.36;82.69;101570.97;4949732;28;20062;-72
2021/10/27 05:03:36;;;;;;;12.50;4.68;;;;;;;17.31;82.86;101569.19;4950903;28;20049;-71
2021/10/27 05:06:05;;;;;;;14.52;5.50;;;;;;;17.29;82.88;101563.84;4950214;28;20043;-70
2021/10/27 05:08:34;;;;;;;24.58;9.73;;;;;;;17.27;82.98;101564.72;4949418;28;20428;-71
2021/10/27 05:11:02;;;;;;;18.92;9.48;;;;;;;17.26;83.12;101568.28;4949935;28;20070;-71
2021/10/27 05:13:30;;;;;;;18.63;6.50;;;;;;;17.23;83.20;101568.28;4948188;28;20133;-71
2021/10/27 05:15:57;;;;;;;14.15;5.05;;;;;;;17.21;83.23;101562.94;4952761;28;20463;-72
2021/10/27 05:18:25;;;;;;;9.68;5.40;;;;;;;17.18;83.32;101570.06;4949238;28;20054;-72
2021/10/27 05:20:53;;;;;;;22.15;12.75;;;;;;;17.15;83.42;101568.25;4949748;28;20555;-72
2021/10/27 05:23:22;;;;;;;17.40;7.32;;;;;;;17.17;83.44;101569.16;4950599;28;20393;-71
2021/10/27 05:25:49;;;;;;;11.68;4.38;;;;;;;17.08;83.28;101578.03;4948153;28;20047;-71
2021/10/27 05:28:17;;;;;;;13.40;6.35;;;;;;;16.98;83.60;101588.69;4978007;28;20512;-71
2021/10/27 05:30:46;;;;;;;12.80;5.05;;;;;;;16.93;84.07;101586.03;5042398;28;20379;-71
2021/10/27 05:33:14;;;;;;;16.45;5.05;;;;;;;16.93;84.24;101585.13;4995252;28;20473;-72
2021/10/27 05:35:42;;;;;;;18.60;5.95;;;;;;;16.94;84.57;101594.88;5002928;28;20124;-70
2021/10/27 05:38:09;;;;;;;17.13;6.18;;;;;;;16.94;84.64;101598.44;5022305;28;20107;-70
2021/10/27 05:40:38;;;;;;;14.63;4.93;;;;;;;16.88;84.77;101601.09;5028586;28;20371;-70
2021/10/27 05:43:10;;;;;;;11.73;5.28;;;;;;;16.87;84.80;101587.78;4996927;28;20052;-70
2021/10/27 05:45:37;;;;;;;16.15;6.60;;;;;;;16.88;85.00;101581.53;5013280;28;20039;-69
2021/10/27 05:48:07;;;;;;;45.72;29.00;;;;;;;16.92;84.97;101591.34;5040955;28;20036;-69
2021/10/27 05:50:38;;;;;;;35.13;17.65;;;;;;;16.90;84.83;101593.09;5031069;28;20542;-70
2021/10/27 05:55:52;;;;;;;16.42;6.82;;;;;;;16.83;85.06;101596.63;4984669;28;20138;-69
2021/10/27 05:58:19;;;;;;;11.32;6.03;;;;;;;16.79;85.35;101601.09;4949385;28;20035;-70
2021/10/27 06:00:47;;;;;;;16.30;5.72;;;;;;;16.88;85.80;101602.88;4949034;28;20042;-70
2021/10/27 06:03:15;;;;;;;16.85;5.70;;;;;;;16.92;85.88;101596.69;4950114;28;20039;-70
2021/10/27 06:05:43;;;;;;;11.52;4.78;;;;;;;16.94;85.81;101602.88;4950077;28;20435;-70
2021/10/27 06:08:10;;;;;;;13.20;6.22;;;;;;;16.96;85.60;101596.69;4948011;28;20060;-70
2021/10/27 06:10:38;;;;;;;10.23;5.93;;;;;;;16.98;85.67;101604.69;4949112;28;20043;-69
2021/10/27 06:13:08;;;;;;;15.57;6.65;;;;;;;16.96;85.46;101610.03;4949108;28;20047;-70
2021/10/27 06:15:36;;;;;;;21.70;8.38;;;;;;;16.92;85.45;101618.00;4959622;28;20043;-70
2021/10/27 06:18:04;;;;;;;25.45;11.98;;;;;;;16.88;85.67;101608.19;4991068;28;20047;-70
2021/10/27 06:20:32;;;;;;;38.00;23.70;;;;;;;16.93;86.08;101611.81;4972323;28;20054;-68
2021/10/27 06:22:59;;;;;;;23.00;10.40;;;;;;;16.98;86.55;101610.03;4970085;28;20037;-70
2021/10/27 06:25:27;;;;;;;26.42;16.65;;;;;;;16.99;86.57;101619.81;4957413;28;20070;-69
2021/10/27 06:28:01;;;;;;;21.55;11.18;;;;;;;16.96;86.64;101626.03;4949620;28;20054;-69
2021/10/27 06:30:41;;;;;;;22.40;10.57;;;;;;;17.00;86.80;101621.59;4949421;28;20043;-70
2021/10/27 06:33:19;;;;;;;14.10;5.97;;;;;;;17.00;86.94;101634.94;4954588;28;20463;-70
2021/10/27 06:35:53;;;;;;;22.35;12.98;;;;;;;17.00;87.18;101641.13;4949994;28;20051;-70
2021/10/27 06:46:39;;;;;;;12.18;4.93;;;;;;;16.92;87.68;101644.69;4962281;28;20444;-70
2021/10/27 06:49:07;;;;;;;17.05;8.27;;;;;;;16.85;87.79;101645.56;4948304;28;20093;-70
2021/10/27 06:51:35;;;;;;;17.73;6.95;;;;;;;16.78;87.80;101649.06;4943293;28;20535;-70
2021/10/27 06:54:02;;;;;;;25.20;13.65;;;;;;;16.71;87.78;101649.03;4944764;28;20059;-69
2021/10/27 06:56:30;;;;;;;21.48;9.82;;;;;;;16.70;87.63;101644.59;4964994;28;20159;-69
2021/10/27 06:59:04;;;;;;;18.55;7.20;;;;;;;16.65;87.73;101643.69;4948589;28;20046;-69
2021/10/27 07:01:41;;;;;;;;;;;;;;;16.57;87.95;101649.81;4948000;28;20040;-71
2021/10/27 07:07:10;;;;;;;16.05;5.50;;;;;;;16.58;88.47;101649.84;4972058;28;20039;-71
2021/10/27 07:15:08;;;;;;;15.40;5.40;;;;;;;16.85;89.43;101649.09;4967082;28;20051;-71
2021/10/27 07:17:35;;;;;;;9.02;4.70;;;;;;;16.96;89.78;101649.13;4950862;28;20043;-72
2021/10/27 07:20:07;;;;;;;10.65;4.10;;;;;;;16.98;89.96;101644.72;4958223;28;20110;-74
2021/10/27 07:22:35;;;;;;;12.60;4.72;;;;;;;16.99;89.99;101650.06;4947385;28;21866;-72
2021/10/27 07:25:04;;;;;;;12.02;4.18;;;;;;;17.03;90.27;101651.84;4960677;28;20054;-74
2021/10/27 07:27:31;;;;;;;12.25;3.70;;;;;;;17.06;90.43;101658.97;4947016;28;20072;-72
2021/10/27 07:29:59;;;;;;;11.20;3.47;;;;;;;17.03;90.37;101661.63;4948799;28;20403;-73
2021/10/27 07:32:28;;;;;;;13.13;5.07;;;;;;;17.04;90.48;101663.41;4950916;28;20046;-73
2021/10/27 07:34:59;;;;;;;9.52;3.72;;;;;;;17.08;90.50;101660.75;4952705;28;20047;-73
2021/10/27 07:43:01;;;;;;;18.83;11.95;;;;;;;17.22;91.27;101658.13;4972820;28;20128;-71
2021/10/27 07:45:28;;;;;;;12.30;5.32;;;;;;;17.22;91.46;101660.78;4966887;28;20051;-71
2021/10/27 07:47:57;;;;;;;14.30;5.45;;;;;;;17.18;91.44;101661.69;4944756;28;20129;-71
2021/10/27 07:50:25;;;;;;;10.40;4.07;;;;;;;17.08;91.27;101663.41;4987934;28;20041;-70
2021/10/27 07:52:54;;;;;;;11.13;3.25;;;;;;;17.02;90.96;101659.84;5029187;28;20035;-70
2021/10/27 07:55:23;;;;;;;11.65;4.10;;;;;;;16.88;90.77;101656.22;4940922;28;20043;-71
2021/10/27 07:57:50;;;;;;;27.98;16.00;;;;;;;16.77;90.28;101652.63;4936528;28;20058;-70
2021/10/27 08:00:18;;;;;;;17.52;11.45;;;;;;;16.71;90.21;101650.81;4955433;28;20039;-70
2021/10/27 08:02:46;;;;;;;46.80;29.23;;;;;;;16.69;90.20;101653.47;4967322;28;20421;-71
2021/10/27 08:05:14;;;;;;;37.38;25.55;;;;;;;16.71;90.45;101654.38;4972236;28;20061;-71
2021/10/27 08:07:46;;;;;;;39.78;24.25;;;;;;;16.76;90.58;101654.38;4958828;28;20048;-70
2021/10/27 08:10:16;;;;;;;34.15;23.42;;;;;;;16.77;90.56;101652.63;4948891;28;20055;-74
2021/10/27 08:12:44;;;;;;;19.27;11.13;;;;;;;16.76;90.72;101651.72;4942051;28;20043;-74
2021/10/27 08:15:12;;;;;;;10.10;5.10;;;;;;;16.81;90.85;101654.41;4951790;28;20129;-72
2021/10/27 08:17:40;;;;;;;8.07;4.40;;;;;;;16.90;91.22;101654.44;4953331;28;20051;-72
2021/10/27 08:20:10;;;;;;;23.83;13.05;;;;;;;16.93;91.52;101647.38;4949168;28;20046;-72
2021/10/27 08:22:39;;;;;;;9.60;4.00;;;;;;;16.96;91.77;101657.13;4948321;28;20404;-73
2021/10/27 08:25:14;;;;;;;14.10;5.20;;;;;;;17.05;91.98;101657.19;4947461;28;20427;-72
2021/10/27 08:27:43;;;;;;;8.68;4.55;;;;;;;17.08;92.31;101646.50;4962651;28;20043;-74
2021/10/27 08:30:13;;;;;;;10.90;3.90;;;;;;;17.09;92.39;101648.28;4952075;28;20551;-74
2021/10/27 08:32:49;;;;;;;15.02;7.82;;;;;;;17.13;92.76;101650.09;4948149;28;20089;-74
2021/10/27 08:35:17;;;;;;;24.77;13.73;;;;;;;17.22;93.12;101639.44;4948852;28;20532;-73
2021/10/27 08:37:47;;;;;;;15.60;6.72;;;;;;;17.28;93.38;101642.13;4950454;28;20101;-74
2021/10/27 08:40:16;;;;;;;12.20;4.40;;;;;;;17.35;93.64;101633.25;4947678;28;20039;-74
2021/10/27 08:42:46;;;;;;;15.95;4.55;;;;;;;17.40;93.73;101641.25;4949364;28;20035;-74
2021/10/27 08:45:14;;;;;;;11.77;4.47;;;;;;;17.44;93.78;101641.28;4960171;28;20058;-74
2021/10/27 08:47:47;;;;;;;16.58;4.85;;;;;;;17.41;93.61;101629.69;4950362;28;20048;-74
2021/10/27 08:50:16;;;;;;;11.13;3.92;;;;;;;17.34;93.30;101626.13;4945061;28;20081;-74
2021/10/27 08:52:44;;;;;;;9.52;4.15;;;;;;;17.29;93.00;101616.31;4942212;28;20501;-74
2021/10/27 08:55:13;;;;;;;11.15;4.47;;;;;;;17.27;92.78;101616.31;4949385;28;20050;-75
2021/10/27 08:57:43;;;;;;;13.63;4.82;;;;;;;17.27;92.57;101623.41;4949201;28;20057;-75
2021/10/27 09:00:16;;;;;;;10.23;4.07;;;;;;;17.24;92.75;101612.75;4932155;28;20392;-75
2021/10/27 09:05:48;;;;;;;10.05;3.75;;;;;;;17.27;92.35;101602.97;4946945;28;20569;-75
2021/10/27 09:08:39;;;;;;;9.45;4.15;;;;;;;17.30;92.54;101600.31;4933615;28;20035;-75
2021/10/27 09:33:29;;;;;;;10.35;4.57;;;;;;;17.52;93.29;101599.44;4950070;28;20070;-76
2021/10/27 09:42:43;;;;;;;10.23;4.63;;;;;;;17.76;94.30;101585.25;4946569;28;20137;-75
2021/10/27 10:05:09;;;;;;;12.32;4.30;;;;;;;18.32;95.37;101566.41;4949245;28;20089;-73
2021/10/27 10:07:38;;;;;;;12.32;6.20;;;;;;;18.44;95.44;101561.94;4936328;28;20047;-74
2021/10/27 10:10:08;;;;;;;10.27;4.28;;;;;;;18.54;95.57;101555.66;4948423;28;20505;-73
2021/10/27 10:12:38;;;;;;;13.85;4.63;;;;;;;18.65;95.67;101556.50;4949303;28;20039;-74
2021/10/27 10:15:06;;;;;;;9.07;3.60;;;;;;;18.78;96.01;101551.97;4948278;28;20036;-73
2021/10/27 10:17:35;;;;;;;7.63;3.38;;;;;;;18.81;95.97;101557.31;4941390;28;20047;-74
2021/10/27 10:20:05;;;;;;;11.15;3.22;;;;;;;18.87;95.61;101555.50;4952228;28;20460;-73
2021/10/27 10:22:36;;;;;;;8.60;3.35;;;;;;;18.95;95.31;101550.13;4951785;28;20093;-73
2021/10/27 10:25:31;;;;;;;11.30;3.45;;;;;;;19.02;94.78;101544.72;4948351;28;20063;-73
2021/10/27 10:28:16;;;;;;;10.00;3.72;;;;;;;19.12;94.18;101534.81;4939256;28;20055;-73
2021/10/27 10:30:47;;;;;;;;;;;;;;;19.22;94.25;101538.34;4949589;28;20054;-74
2021/10/27 10:33:16;;;;;;;10.45;3.70;;;;;;;19.35;94.57;101535.56;4951298;28;20342;-73
2021/10/27 11:02:53;;;;;;;13.23;4.72;;;;;;;20.20;91.34;101520.44;4930936;28;20782;-74
2021/10/27 11:23:20;;;;;;;16.90;5.95;;;;;;;20.02;89.17;101500.06;4969039;28;19922;-74
2021/10/27 11:26:03;;;;;;;11.10;4.88;;;;;;;20.08;88.79;101486.63;4952282;28;20066;-74
2021/10/27 11:37:31;;;;;;;9.27;3.60;;;;;;;20.06;86.07;101482.19;4948950;28;20504;-74
2021/10/27 11:40:08;;;;;;;17.10;5.57;;;;;;;20.15;85.90;101482.09;4947582;28;20043;-74
2021/10/27 11:42:46;;;;;;;12.48;4.82;;;;;;;20.21;85.70;101492.72;4949778;28;20135;-74
2021/10/27 11:45:25;;;;;;;13.18;5.53;;;;;;;20.21;85.58;101490.06;4957077;28;20050;-73
2021/10/27 11:47:58;;;;;;;14.95;7.45;;;;;;;20.23;85.16;101494.47;4944507;28;20047;-74
2021/10/27 11:50:33;;;;;;;18.73;7.50;;;;;;;20.18;84.61;101488.28;4945882;28;20093;-75
2021/10/27 11:53:05;;;;;;;16.38;9.07;;;;;;;20.14;84.37;101488.34;4944700;28;20166;-74
2021/10/27 11:55:37;;;;;;;13.75;8.43;;;;;;;20.11;83.79;101486.59;4945204;28;20408;-75
2021/10/27 11:58:05;;;;;;;11.93;5.50;;;;;;;20.08;82.98;101477.69;4937655;28;20051;-74
2021/10/27 12:00:36;;;;;;;10.50;5.00;;;;;;;20.06;82.76;101477.72;4951125;28;20043;-75
2021/10/27 12:03:08;;;;;;;12.02;6.80;;;;;;;20.05;82.24;101481.28;4950733;28;20043;-74
2021/10/27 12:05:42;;;;;;;18.30;9.02;;;;;;;19.96;81.96;101483.19;4959725;28;20042;-75
2021/10/27 12:13:47;;;;;;;12.57;7.53;;;;;;;19.94;82.60;101477.88;4947395;28;20520;-74
2021/10/27 12:19:02;;;;;;;16.80;7.70;;;;;;;20.00;82.21;101471.53;4948782;28;20523;-74
2021/10/27 12:21:30;;;;;;;19.05;8.52;;;;;;;20.00;82.35;101467.06;4948753;28;20100;-74
2021/10/27 12:24:01;;;;;;;29.85;10.00;;;;;;;19.99;81.87;101465.28;4945577;28;20066;-75
2021/10/27 12:26:29;;;;;;;11.23;5.13;;;;;;;20.01;81.98;101462.59;4931479;28;20520;-75
2021/10/27 12:29:11;;;;;;;13.77;4.70;;;;;;;19.99;81.64;101456.34;4951334;28;20051;-74
2021/10/27 12:31:39;;;;;;;12.32;5.40;;;;;;;19.93;81.76;101459.09;4950478;28;20032;-75
2021/10/27 12:34:22;;;;;;;14.60;4.50;;;;;;;19.90;81.03;101468.94;4949998;28;20043;-74
2021/10/27 12:36:52;;;;;;;12.52;8.20;;;;;;;19.87;81.36;101468.13;4950193;28;20052;-74
2021/10/27 12:39:24;;;;;;;12.98;5.63;;;;;;;19.87;81.40;101465.44;4950764;28;20085;-74
2021/10/27 12:42:03;;;;;;;11.05;5.63;;;;;;;19.88;81.09;101453.81;4950482;28;20048;-74
2021/10/27 12:44:32;;;;;;;12.75;5.78;;;;;;;19.90;81.20;101466.25;4950697;28;20074;-74
2021/10/27 12:47:10;;;;;;;14.95;6.80;;;;;;;19.86;80.95;101469.00;4950668;28;20462;-74
2021/10/27 12:49:40;;;;;;;15.35;5.68;;;;;;;19.84;81.08;101469.03;4950697;28;20059;-74
2021/10/27 12:52:29;;;;;;;14.52;7.65;;;;;;;19.81;80.78;101458.34;4949883;28;20069;-74
2021/10/27 12:55:28;;;;;;;13.43;5.97;;;;;;;19.76;80.80;101459.28;4950331;28;20039;-74
2021/10/27 12:58:03;;;;;;;13.02;6.47;;;;;;;19.73;81.06;101464.69;4949148;28;20512;-73
2021/10/27 13:00:45;;;;;;;12.23;5.45;;;;;;;19.71;81.12;101461.13;4950591;28;20471;-74
2021/10/27 13:03:26;;;;;;;15.38;6.20;;;;;;;19.66;81.11;101460.28;4949383;28;20512;-74
2021/10/27 13:06:02;;;;;;;12.73;5.75;;;;;;;19.62;81.02;101464.81;4931062;29;20126;-74
2021/10/27 13:11:40;;;;;;;11.68;5.03;;;;;;;19.55;81.01;101456.84;4950120;28;20516;-74
2021/10/27 13:22:31;;;;;;;30.33;17.63;;;;;;;19.45;81.40;101472.06;4918164;28;20040;-74
2021/10/27 13:30:32;;;;;;;26.77;16.10;;;;;;;19.38;81.94;101473.03;4950134;28;20047;-74
2021/10/27 13:33:01;;;;;;;25.70;17.80;;;;;;;19.39;81.78;101469.47;4950468;28;20044;-74
2021/10/27 13:35:29;;;;;;;24.85;16.95;;;;;;;19.40;81.82;101473.91;4948813;28;20035;-74
2021/10/27 13:37:58;;;;;;;22.48;14.60;;;;;;;19.44;81.56;101468.50;4950035;28;20047;-74
2021/10/27 13:40:26;;;;;;;20.90;10.60;;;;;;;19.39;81.79;101466.78;4949003;28;20035;-74
2021/10/27 13:42:59;;;;;;;16.80;7.65;;;;;;;19.36;82.04;101470.34;4949698;28;20067;-75
2021/10/27 13:45:31;;;;;;;15.82;7.72;;;;;;;19.32;82.01;101473.09;4950222;28;20102;-74
2021/10/27 13:48:06;;;;;;;16.40;6.93;;;;;;;19.29;81.95;101466.00;4964158;28;20047;-74
2021/10/27 13:59:15;;;;;;;17.60;8.48;;;;;;;19.00;81.69;101482.28;4869382;28;20045;-74
2021/10/27 14:07:18;;;;;;;15.55;10.15;;;;;;;18.96;81.33;101483.22;4947939;28;20066;-82
2021/10/27 14:09:51;;;;;;;17.10;11.68;;;;;;;18.98;81.29;101483.19;4949499;28;20043;-80
2021/10/27 14:12:24;;;;;;;15.35;7.40;;;;;;;18.94;81.25;101478.75;4949807;28;20404;-83
2021/10/27 14:17:50;;;;;;;11.10;5.35;;;;;;;18.90;81.20;101485.03;4948529;28;20109;-82
2021/10/27 14:48:16;;;;;;;27.30;14.32;;;;;;;18.79;81.64;101498.47;4988182;28;20041;-75